createdAt,value
2022-07-30T00:00:49.165Z,99.08
2022-07-30T00:03:15.876Z,100.00
2022-07-30T00:05:42.483Z,100.00
2022-07-30T00:08:09.023Z,100.00
2022-07-30T00:10:35.660Z,100.00
2022-07-30T00:13:02.258Z,100.00
2022-07-30T00:15:28.875Z,100.00
2022-07-30T00:17:55.491Z,100.00
2022-07-30T00:20:22.823Z,100.00
2022-07-30T00:22:49.400Z,100.00
2022-07-30T00:25:18.596Z,100.00
2022-07-30T00:27:45.471Z,100.00
2022-07-30T00:30:12.822Z,100.00
2022-07-30T00:32:39.375Z,100.00
2022-07-30T00:35:06.706Z,100.00
2022-07-30T00:37:33.299Z,100.00
2022-07-30T00:40:00.040Z,100.00
2022-07-30T00:42:41.825Z,100.00
2022-07-30T00:45:10.186Z,100.00
2022-07-30T00:47:37.699Z,100.00
2022-07-30T00:50:06.155Z,100.00
2022-07-30T00:52:33.477Z,100.00
2022-07-30T00:55:00.697Z,100.00
2022-07-30T00:57:28.322Z,100.00
2022-07-30T00:59:55.354Z,100.00
2022-07-30T01:02:22.369Z,100.00
2022-07-30T01:04:49.132Z,100.00
2022-07-30T01:07:15.805Z,100.00
2022-07-30T01:09:42.360Z,100.00
2022-07-30T01:12:17.564Z,100.00
2022-07-30T01:14:44.513Z,100.00
2022-07-30T01:17:11.168Z,100.00
2022-07-30T01:19:49.904Z,100.00
2022-07-30T01:22:24.309Z,100.00
2022-07-30T01:25:15.393Z,100.00
2022-07-30T01:27:47.770Z,100.00
2022-07-30T01:30:19.044Z,100.00
2022-07-30T01:32:47.718Z,100.00
2022-07-30T01:35:16.357Z,100.00
2022-07-30T01:37:44.736Z,100.00
2022-07-30T01:40:12.772Z,100.00
2022-07-30T01:42:40.646Z,100.00
2022-07-30T01:45:09.241Z,100.00
2022-07-30T01:47:38.759Z,100.00
2022-07-30T01:50:08.045Z,100.00
2022-07-30T01:52:38.534Z,100.00
2022-07-30T01:55:17.029Z,100.00
2022-07-30T01:57:46.989Z,100.00
2022-07-30T02:00:14.255Z,100.00
2022-07-30T02:02:41.381Z,100.00
2022-07-30T02:05:09.785Z,100.00
2022-07-30T02:07:51.594Z,100.00
2022-07-30T02:10:26.806Z,100.00
2022-07-30T02:12:56.588Z,100.00
2022-07-30T02:15:27.078Z,100.00
2022-07-30T02:18:03.067Z,100.00
2022-07-30T02:20:35.813Z,100.00
2022-07-30T02:23:11.370Z,100.00
2022-07-30T02:25:44.193Z,100.00
2022-07-30T02:28:14.707Z,100.00
2022-07-30T02:30:47.218Z,100.00
2022-07-30T02:33:17.250Z,100.00
2022-07-30T02:35:44.059Z,100.00
2022-07-30T02:38:14.229Z,100.00
2022-07-30T02:40:43.478Z,100.00
2022-07-30T02:43:10.533Z,100.00
2022-07-30T02:45:38.052Z,100.00
2022-07-30T02:48:08.091Z,100.00
2022-07-30T02:50:35.792Z,100.00
2022-07-30T02:53:05.551Z,100.00
2022-07-30T02:55:35.503Z,100.00
2022-07-30T02:58:05.632Z,100.00
2022-07-30T03:00:33.840Z,100.00
2022-07-30T03:03:01.827Z,100.00
2022-07-30T03:05:29.285Z,100.00
2022-07-30T03:07:58.976Z,100.00
2022-07-30T03:10:27.154Z,100.00
2022-07-30T03:12:54.992Z,100.00
2022-07-30T03:15:21.756Z,100.00
2022-07-30T03:17:55.663Z,100.00
2022-07-30T03:20:27.269Z,100.00
2022-07-30T03:22:55.291Z,100.00
2022-07-30T03:25:25.960Z,100.00
2022-07-30T03:27:54.635Z,100.00
2022-07-30T03:30:22.844Z,100.00
2022-07-30T03:32:51.887Z,100.00
2022-07-30T03:35:20.233Z,100.00
2022-07-30T03:37:48.393Z,100.00
2022-07-30T03:40:15.739Z,100.00
2022-07-30T03:42:42.805Z,100.00
2022-07-30T03:45:10.262Z,100.00
2022-07-30T03:47:38.590Z,100.00
2022-07-30T03:50:06.298Z,100.00
2022-07-30T03:52:35.253Z,100.00
2022-07-30T03:55:04.129Z,100.00
2022-07-30T03:57:30.913Z,100.00
2022-07-30T03:59:57.603Z,100.00
2022-07-30T04:02:24.148Z,100.00
2022-07-30T04:04:50.867Z,100.00
2022-07-30T04:07:17.833Z,100.00
2022-07-30T04:09:44.458Z,100.00
2022-07-30T04:12:13.737Z,100.00
2022-07-30T04:14:42.411Z,100.00
2022-07-30T04:17:33.138Z,100.00
2022-07-30T04:20:16.498Z,100.00
2022-07-30T04:22:45.599Z,100.00
2022-07-30T04:25:24.361Z,100.00
2022-07-30T04:28:03.062Z,100.00
2022-07-30T04:30:31.078Z,100.00
2022-07-30T04:32:57.650Z,100.00
2022-07-30T04:35:50.647Z,100.00
2022-07-30T04:38:18.198Z,100.00
2022-07-30T04:40:44.839Z,100.00
2022-07-30T04:43:11.484Z,100.00
2022-07-30T04:45:39.756Z,100.00
2022-07-30T04:48:06.824Z,100.00
2022-07-30T04:50:36.133Z,100.00
2022-07-30T04:53:03.126Z,100.00
2022-07-30T04:55:31.618Z,100.00
2022-07-30T04:57:59.587Z,100.00
2022-07-30T05:00:32.243Z,100.00
2022-07-30T05:03:00.825Z,100.00
2022-07-30T05:05:28.438Z,100.00
2022-07-30T05:07:55.645Z,100.00
2022-07-30T05:10:22.331Z,100.00
2022-07-30T05:12:48.866Z,100.00
2022-07-30T05:15:15.454Z,100.00
2022-07-30T05:17:41.948Z,100.00
2022-07-30T05:20:09.698Z,100.00
2022-07-30T05:22:36.302Z,100.00
2022-07-30T05:25:03.246Z,100.00
2022-07-30T05:27:42.242Z,100.00
2022-07-30T05:30:09.517Z,100.00
2022-07-30T05:32:37.397Z,100.00
2022-07-30T05:35:05.686Z,100.00
2022-07-30T05:37:33.144Z,100.00
2022-07-30T05:40:02.663Z,100.00
2022-07-30T05:42:29.561Z,100.00
2022-07-30T05:44:56.207Z,100.00
2022-07-30T05:47:22.936Z,100.00
2022-07-30T05:49:50.140Z,100.00
2022-07-30T05:52:16.986Z,100.00
2022-07-30T05:54:43.759Z,100.00
2022-07-30T05:57:11.060Z,100.00
2022-07-30T05:59:37.603Z,100.00
2022-07-30T06:02:04.343Z,100.00
2022-07-30T06:04:30.928Z,100.00
2022-07-30T06:06:57.601Z,100.00
2022-07-30T06:09:28.523Z,100.00
2022-07-30T06:12:03.589Z,100.00
2022-07-30T06:14:30.154Z,100.00
2022-07-30T06:16:59.273Z,100.00
2022-07-30T06:19:26.381Z,100.00
2022-07-30T06:22:05.536Z,100.00
2022-07-30T06:24:34.210Z,100.00
2022-07-30T06:27:00.997Z,100.00
2022-07-30T06:29:27.763Z,100.00
2022-07-30T06:31:54.378Z,100.00
2022-07-30T06:34:21.027Z,100.00
2022-07-30T06:36:47.831Z,100.00
2022-07-30T06:39:14.512Z,100.00
2022-07-30T06:42:01.015Z,100.00
2022-07-30T06:44:27.630Z,100.00
2022-07-30T06:46:54.292Z,100.00
2022-07-30T06:49:20.941Z,100.00
2022-07-30T06:51:49.070Z,100.00
2022-07-30T06:54:15.623Z,100.00
2022-07-30T06:56:42.260Z,100.00
2022-07-30T06:59:08.793Z,100.00
2022-07-30T07:01:35.504Z,100.00
2022-07-30T07:04:02.162Z,100.00
2022-07-30T07:06:29.025Z,100.00
2022-07-30T07:08:55.611Z,100.00
2022-07-30T07:11:22.132Z,100.00
2022-07-30T07:13:48.672Z,100.00
2022-07-30T07:16:15.566Z,99.74
2022-07-30T07:18:42.287Z,97.73
2022-07-30T07:21:08.828Z,97.59
2022-07-30T07:23:41.527Z,97.29
2022-07-30T07:26:08.946Z,98.27
2022-07-30T07:28:35.594Z,97.74
2022-07-30T07:31:02.210Z,97.64
2022-07-30T07:33:28.816Z,97.86
2022-07-30T07:35:55.529Z,97.80
2022-07-30T07:38:22.317Z,98.53
2022-07-30T07:40:48.987Z,98.67
2022-07-30T07:43:15.896Z,98.15
2022-07-30T07:45:43.134Z,97.48
2022-07-30T07:48:10.008Z,97.03
2022-07-30T07:50:36.578Z,96.98
2022-07-30T07:53:03.734Z,97.40
2022-07-30T07:55:32.896Z,97.46
2022-07-30T07:58:00.563Z,96.76
2022-07-30T08:00:27.078Z,96.93
2022-07-30T08:02:53.691Z,96.71
2022-07-30T08:05:20.458Z,96.10
2022-07-30T08:07:47.117Z,95.59
2022-07-30T08:10:15.956Z,95.46
2022-07-30T08:12:42.829Z,94.53
2022-07-30T08:15:09.925Z,93.32
2022-07-30T08:17:46.631Z,92.93
2022-07-30T08:20:25.614Z,92.61
2022-07-30T08:22:52.251Z,91.77
2022-07-30T08:25:24.338Z,90.87
2022-07-30T08:27:51.441Z,90.60
2022-07-30T08:30:20.235Z,89.77
2022-07-30T08:32:46.762Z,88.28
2022-07-30T08:35:13.467Z,87.58
2022-07-30T08:37:41.161Z,87.63
2022-07-30T08:40:08.712Z,88.11
2022-07-30T08:42:35.938Z,86.69
2022-07-30T08:45:03.129Z,86.42
2022-07-30T08:47:34.484Z,88.02
2022-07-30T08:50:05.264Z,88.26
2022-07-30T08:52:33.253Z,88.57
2022-07-30T08:55:01.057Z,87.94
2022-07-30T08:57:34.638Z,88.87
2022-07-30T09:00:02.199Z,89.56
2022-07-30T09:02:31.752Z,89.44
2022-07-30T09:04:58.683Z,89.93
2022-07-30T09:07:25.737Z,87.62
2022-07-30T09:09:52.245Z,87.78
2022-07-30T09:12:42.962Z,89.67
2022-07-30T09:15:15.496Z,90.83
2022-07-30T09:17:48.088Z,91.89
2022-07-30T09:20:15.538Z,89.76
2022-07-30T09:22:44.457Z,89.32
2022-07-30T09:25:14.158Z,88.70
2022-07-30T09:27:49.140Z,89.13
2022-07-30T09:30:16.760Z,87.98
2022-07-30T09:32:54.938Z,88.04
2022-07-30T09:35:23.058Z,87.70
2022-07-30T09:38:04.573Z,87.33
2022-07-30T09:40:32.933Z,86.60
2022-07-30T09:43:10.422Z,86.88
2022-07-30T09:45:56.804Z,86.92
2022-07-30T09:48:28.508Z,86.06
2022-07-30T09:50:57.510Z,86.48
2022-07-30T09:53:24.980Z,87.01
2022-07-30T09:55:51.731Z,86.43
2022-07-30T09:58:26.711Z,87.16
2022-07-30T10:00:59.537Z,85.69
2022-07-30T10:03:33.587Z,85.39
2022-07-30T10:06:08.819Z,86.48
2022-07-30T10:08:40.993Z,86.67
2022-07-30T10:11:11.808Z,87.60
2022-07-30T10:13:42.730Z,88.63
2022-07-30T10:16:12.141Z,85.02
2022-07-30T10:18:40.779Z,87.39
2022-07-30T10:21:08.339Z,88.86
2022-07-30T10:23:36.011Z,87.56
2022-07-30T10:26:03.771Z,86.71
2022-07-30T10:28:34.666Z,86.34
2022-07-30T10:31:08.467Z,88.96
2022-07-30T10:33:52.477Z,90.11
2022-07-30T10:36:21.046Z,92.46
2022-07-30T10:38:52.693Z,90.55
2022-07-30T10:41:53.907Z,92.48
2022-07-30T10:44:20.896Z,92.26
2022-07-30T10:46:56.664Z,89.44
2022-07-30T10:49:25.919Z,89.49
2022-07-30T10:51:57.570Z,90.98
2022-07-30T10:54:33.637Z,90.84
2022-07-30T10:57:22.794Z,92.11
2022-07-30T11:00:04.074Z,92.85
2022-07-30T11:02:35.382Z,92.99
2022-07-30T11:05:17.776Z,88.25
2022-07-30T11:07:47.752Z,87.80
2022-07-30T11:10:37.348Z,92.45
2022-07-30T11:13:05.909Z,92.61
2022-07-30T11:15:59.972Z,89.62
2022-07-30T11:18:28.755Z,90.58
2022-07-30T11:21:21.314Z,90.66
2022-07-30T11:23:49.467Z,90.79
2022-07-30T11:26:40.906Z,87.44
2022-07-30T11:29:32.775Z,83.66
2022-07-30T11:32:32.088Z,84.59
2022-07-30T11:35:26.092Z,84.10
2022-07-30T11:38:07.627Z,88.27
2022-07-30T11:40:42.569Z,88.10
2022-07-30T11:43:18.885Z,86.89
2022-07-30T11:45:53.582Z,86.85
2022-07-30T11:48:21.186Z,88.71
2022-07-30T11:50:50.071Z,85.88
2022-07-30T11:53:20.872Z,86.12
2022-07-30T11:55:58.395Z,83.46
2022-07-30T11:58:29.842Z,84.20
2022-07-30T12:00:59.135Z,82.09
2022-07-30T12:03:29.916Z,77.80
2022-07-30T12:05:56.929Z,79.50
2022-07-30T12:08:35.271Z,82.60
2022-07-30T12:11:03.683Z,81.31
2022-07-30T12:13:44.636Z,82.05
2022-07-30T12:16:16.499Z,79.12
2022-07-30T12:18:44.348Z,77.01
2022-07-30T12:21:16.367Z,77.01
2022-07-30T12:24:07.606Z,75.54
2022-07-30T12:26:34.979Z,79.68
2022-07-30T12:29:14.018Z,77.08
2022-07-30T12:31:41.879Z,77.52
2022-07-30T12:34:33.127Z,74.74
2022-07-30T12:37:10.460Z,73.65
2022-07-30T12:39:37.251Z,75.63
2022-07-30T12:42:04.005Z,73.52
2022-07-30T12:44:50.300Z,72.29
2022-07-30T12:47:30.826Z,72.20
2022-07-30T12:50:00.678Z,69.56
2022-07-30T12:52:33.697Z,68.84
2022-07-30T12:55:09.916Z,68.08
2022-07-30T12:58:02.966Z,65.53
2022-07-30T13:00:48.262Z,69.70
2022-07-30T13:03:21.856Z,67.33
2022-07-30T13:05:51.228Z,70.07
2022-07-30T13:08:45.405Z,71.24
2022-07-30T13:11:16.269Z,71.40
2022-07-30T13:13:42.963Z,69.43
2022-07-30T13:16:09.843Z,69.44
2022-07-30T13:18:37.325Z,70.15
2022-07-30T13:21:05.807Z,70.05
2022-07-30T13:23:32.443Z,71.86
2022-07-30T13:26:02.110Z,71.23
2022-07-30T13:28:32.538Z,70.55
2022-07-30T13:30:59.382Z,71.35
2022-07-30T13:33:26.556Z,69.77
2022-07-30T13:35:56.629Z,73.35
2022-07-30T13:38:23.545Z,71.36
2022-07-30T13:40:50.925Z,71.51
2022-07-30T13:43:17.904Z,71.90
2022-07-30T13:45:44.877Z,68.83
2022-07-30T13:48:14.747Z,65.14
2022-07-30T13:50:42.531Z,69.33
2022-07-30T13:53:10.275Z,68.83
2022-07-30T13:55:41.349Z,64.25
2022-07-30T13:58:08.626Z,66.37
2022-07-30T14:00:36.856Z,63.70
2022-07-30T14:03:06.048Z,65.03
2022-07-30T14:05:42.238Z,65.92
2022-07-30T14:08:10.317Z,65.68
2022-07-30T14:10:37.864Z,64.61
2022-07-30T14:13:05.625Z,62.51
2022-07-30T14:15:32.633Z,61.23
2022-07-30T14:18:00.402Z,57.48
2022-07-30T14:20:29.070Z,58.25
2022-07-30T14:22:56.138Z,58.32
2022-07-30T14:25:22.993Z,60.18
2022-07-30T14:27:49.606Z,58.81
2022-07-30T14:30:16.134Z,58.83
2022-07-30T14:32:42.722Z,58.68
2022-07-30T14:35:10.370Z,59.60
2022-07-30T14:37:38.631Z,59.42
2022-07-30T14:40:07.534Z,60.41
2022-07-30T14:42:36.271Z,59.48
2022-07-30T14:45:10.547Z,61.17
2022-07-30T14:47:37.873Z,62.27
2022-07-30T14:50:08.120Z,60.62
2022-07-30T14:52:35.743Z,60.15
2022-07-30T14:55:03.871Z,61.17
2022-07-30T14:57:34.648Z,60.80
2022-07-30T15:00:02.034Z,62.81
2022-07-30T15:02:28.630Z,63.29
2022-07-30T15:04:55.507Z,62.19
2022-07-30T15:07:22.114Z,65.04
2022-07-30T15:09:48.794Z,66.57
2022-07-30T15:12:23.485Z,66.59
2022-07-30T15:14:53.811Z,70.43
2022-07-30T15:17:20.496Z,70.22
2022-07-30T15:19:50.452Z,73.66
2022-07-30T15:22:18.721Z,73.49
2022-07-30T15:24:45.236Z,76.05
2022-07-30T15:27:11.869Z,74.57
2022-07-30T15:29:38.802Z,76.87
2022-07-30T15:32:06.095Z,76.41
2022-07-30T15:34:34.478Z,76.86
2022-07-30T15:37:02.648Z,73.46
2022-07-30T15:39:32.331Z,72.51
2022-07-30T15:41:59.843Z,72.26
2022-07-30T15:44:26.829Z,75.09
2022-07-30T15:46:53.467Z,72.89
2022-07-30T15:49:20.058Z,74.87
2022-07-30T15:51:49.703Z,73.64
2022-07-30T15:54:22.545Z,72.59
2022-07-30T15:56:54.040Z,73.13
2022-07-30T15:59:27.796Z,73.42
2022-07-30T16:01:54.281Z,73.74
2022-07-30T16:04:20.825Z,77.41
2022-07-30T16:06:58.234Z,76.90
2022-07-30T16:09:24.926Z,74.44
2022-07-30T16:11:53.761Z,71.10
2022-07-30T16:14:20.410Z,70.46
2022-07-30T16:16:46.942Z,68.24
2022-07-30T16:19:13.641Z,69.00
2022-07-30T16:21:40.166Z,71.25
2022-07-30T16:24:07.278Z,73.45
2022-07-30T16:26:35.904Z,72.73
2022-07-30T16:29:02.642Z,71.18
2022-07-30T16:31:29.117Z,71.66
2022-07-30T16:33:55.675Z,73.14
2022-07-30T16:36:22.225Z,71.29
2022-07-30T16:38:48.736Z,72.06
2022-07-30T16:41:15.234Z,71.38
2022-07-30T16:43:41.768Z,72.86
2022-07-30T16:46:08.345Z,71.56
2022-07-30T16:48:34.909Z,69.28
2022-07-30T16:51:01.634Z,69.59
2022-07-30T16:53:28.580Z,70.82
2022-07-30T16:55:56.975Z,71.75
2022-07-30T16:58:30.772Z,72.86
2022-07-30T17:00:58.141Z,74.14
2022-07-30T17:03:25.511Z,72.36
2022-07-30T17:05:52.246Z,71.42
2022-07-30T17:08:19.067Z,71.68
2022-07-30T17:10:52.175Z,73.45
2022-07-30T17:13:18.686Z,75.91
2022-07-30T17:15:46.773Z,76.18
2022-07-30T17:18:13.801Z,75.41
2022-07-30T17:20:40.445Z,75.94
2022-07-30T17:23:07.808Z,77.43
2022-07-30T17:25:34.510Z,74.09
2022-07-30T17:28:01.829Z,76.43
2022-07-30T17:30:30.192Z,76.17
2022-07-30T17:32:56.961Z,79.63
2022-07-30T17:35:24.747Z,79.26
2022-07-30T17:37:51.529Z,80.52
2022-07-30T17:40:29.629Z,80.21
2022-07-30T17:43:07.516Z,80.28
2022-07-30T17:45:35.707Z,81.83
2022-07-30T17:48:02.963Z,81.85
2022-07-30T17:50:33.709Z,82.00
2022-07-30T17:53:03.711Z,80.27
2022-07-30T17:55:31.596Z,81.70
2022-07-30T17:57:58.068Z,83.62
2022-07-30T18:00:24.590Z,77.30
2022-07-30T18:02:51.072Z,71.95
2022-07-30T18:05:17.605Z,74.75
2022-07-30T18:07:44.391Z,74.23
2022-07-30T18:10:12.618Z,76.80
2022-07-30T18:12:39.636Z,76.70
2022-07-30T18:15:15.917Z,76.23
2022-07-30T18:17:42.432Z,77.43
2022-07-30T18:20:09.566Z,75.26
2022-07-30T18:22:36.090Z,73.66
2022-07-30T18:25:02.904Z,75.09
2022-07-30T18:27:34.193Z,76.31
2022-07-30T18:30:00.697Z,77.30
2022-07-30T18:32:27.263Z,77.33
2022-07-30T18:34:53.801Z,79.81
2022-07-30T18:37:20.390Z,79.49
2022-07-30T18:39:46.870Z,79.97
2022-07-30T18:42:14.166Z,80.48
2022-07-30T18:44:40.713Z,82.07
2022-07-30T18:47:07.433Z,82.68
2022-07-30T18:49:37.179Z,84.37
2022-07-30T18:52:06.375Z,84.83
2022-07-30T18:54:33.597Z,87.35
2022-07-30T18:57:00.254Z,88.76
2022-07-30T18:59:26.761Z,90.52
2022-07-30T19:01:53.809Z,91.29
2022-07-30T19:04:20.409Z,91.41
2022-07-30T19:06:46.980Z,91.73
2022-07-30T19:09:17.526Z,91.98
2022-07-30T19:11:45.174Z,93.42
2022-07-30T19:14:13.204Z,94.45
2022-07-30T19:16:40.457Z,95.81
2022-07-30T19:19:07.068Z,96.17
2022-07-30T19:21:33.717Z,97.45
2022-07-30T19:24:01.727Z,97.56
2022-07-30T19:26:28.597Z,98.99
2022-07-30T19:28:55.150Z,100.00
2022-07-30T19:31:21.730Z,100.00
2022-07-30T19:33:48.305Z,100.00
2022-07-30T19:36:16.506Z,100.00
2022-07-30T19:38:45.225Z,100.00
2022-07-30T19:41:14.108Z,100.00
2022-07-30T19:43:40.986Z,100.00
2022-07-30T19:46:08.078Z,100.00
2022-07-30T19:48:37.432Z,100.00
2022-07-30T19:51:05.603Z,98.07
2022-07-30T19:53:42.437Z,98.77
2022-07-30T19:56:11.405Z,98.99
2022-07-30T19:58:40.057Z,98.21
2022-07-30T20:01:08.607Z,97.66
2022-07-30T20:03:35.942Z,99.25
2022-07-30T20:06:06.031Z,100.00
2022-07-30T20:08:38.259Z,100.00
2022-07-30T20:11:07.574Z,100.00
2022-07-30T20:13:44.609Z,100.00
2022-07-30T20:16:13.704Z,100.00
2022-07-30T20:18:42.191Z,100.00
2022-07-30T20:21:14.630Z,100.00
2022-07-30T20:23:42.092Z,100.00
2022-07-30T20:26:13.047Z,100.00
2022-07-30T20:28:42.134Z,100.00
2022-07-30T20:31:08.762Z,100.00
2022-07-30T20:33:37.872Z,100.00
2022-07-30T20:36:06.262Z,100.00
2022-07-30T20:38:38.725Z,100.00
2022-07-30T20:41:10.314Z,100.00
2022-07-30T20:43:51.849Z,100.00
2022-07-30T20:46:20.246Z,100.00
2022-07-30T20:48:46.872Z,100.00
2022-07-30T20:51:13.889Z,100.00
2022-07-30T20:53:41.900Z,100.00
2022-07-30T20:56:12.020Z,100.00
2022-07-30T20:58:40.801Z,100.00
2022-07-30T21:01:07.778Z,100.00
2022-07-30T21:03:34.366Z,100.00
2022-07-30T21:06:02.590Z,100.00
2022-07-30T21:08:29.493Z,100.00
2022-07-30T21:10:57.455Z,100.00
2022-07-30T21:13:26.645Z,100.00
2022-07-30T21:16:02.258Z,100.00
2022-07-30T21:18:30.567Z,100.00
2022-07-30T21:20:57.428Z,100.00
2022-07-30T21:23:24.944Z,100.00
2022-07-30T21:26:00.946Z,100.00
2022-07-30T21:28:30.195Z,100.00
2022-07-30T21:31:02.264Z,100.00
2022-07-30T21:33:31.593Z,100.00
2022-07-30T21:35:59.138Z,100.00
2022-07-30T21:38:30.444Z,100.00
2022-07-30T21:40:57.477Z,100.00
2022-07-30T21:43:29.714Z,100.00
2022-07-30T21:45:58.263Z,100.00
2022-07-30T21:48:25.761Z,100.00
2022-07-30T21:50:54.653Z,100.00
2022-07-30T21:53:29.860Z,100.00
2022-07-30T21:56:10.409Z,100.00
2022-07-30T21:58:38.964Z,100.00
2022-07-30T22:01:17.163Z,100.00
2022-07-30T22:04:03.194Z,100.00
2022-07-30T22:06:38.150Z,100.00
2022-07-30T22:09:19.828Z,100.00
2022-07-30T22:11:56.054Z,100.00
2022-07-30T22:14:23.050Z,100.00
2022-07-30T22:16:52.274Z,100.00
2022-07-30T22:19:21.703Z,100.00
2022-07-30T22:21:49.401Z,100.00
2022-07-30T22:24:29.827Z,100.00
2022-07-30T22:27:11.063Z,100.00
2022-07-30T22:29:43.478Z,100.00
2022-07-30T22:32:11.975Z,100.00
2022-07-30T22:34:38.774Z,100.00
2022-07-30T22:37:12.412Z,100.00
2022-07-30T22:39:51.242Z,100.00
2022-07-30T22:42:20.718Z,100.00
2022-07-30T22:44:50.919Z,100.00
2022-07-30T22:47:20.917Z,100.00
2022-07-30T22:49:56.104Z,100.00
2022-07-30T22:52:25.238Z,100.00
2022-07-30T22:54:56.509Z,100.00
2022-07-30T22:57:28.788Z,100.00
2022-07-30T23:00:10.904Z,100.00
2022-07-30T23:02:39.037Z,100.00
2022-07-30T23:05:06.388Z,100.00
2022-07-30T23:07:38.126Z,100.00
2022-07-30T23:10:12.322Z,100.00
2022-07-30T23:12:46.868Z,100.00
2022-07-30T23:15:13.880Z,100.00
2022-07-30T23:17:40.533Z,100.00
2022-07-30T23:20:09.815Z,100.00
2022-07-30T23:22:36.826Z,100.00
2022-07-30T23:25:06.371Z,100.00
2022-07-30T23:27:33.605Z,100.00
2022-07-30T23:30:00.149Z,100.00
2022-07-30T23:32:26.800Z,100.00
2022-07-30T23:34:53.304Z,100.00
2022-07-30T23:37:19.897Z,100.00
2022-07-30T23:39:46.406Z,100.00
2022-07-30T23:42:12.924Z,100.00
2022-07-30T23:44:39.476Z,100.00
2022-07-30T23:47:06.127Z,100.00
2022-07-30T23:49:32.895Z,100.00
2022-07-30T23:51:59.883Z,100.00
2022-07-30T23:54:27.690Z,100.00
2022-07-30T23:56:56.194Z,100.00
2022-07-30T23:59:24.065Z,100.00
